createdAt,value
2018-05-04T00:02:13.574Z,3.47
2018-05-04T00:04:41.805Z,4.37
2018-05-04T00:07:10.455Z,3.93
2018-05-04T00:09:38.808Z,4.40
2018-05-04T00:12:06.348Z,4.03
2018-05-04T00:14:34.295Z,4.27
2018-05-04T00:17:03.944Z,4.80
2018-05-04T00:19:31.521Z,4.63
2018-05-04T00:21:59.059Z,4.00
2018-05-04T00:24:27.453Z,3.63
2018-05-04T00:26:56.065Z,6.37
2018-05-04T00:29:25.715Z,6.57
2018-05-04T00:31:54.449Z,3.50
2018-05-04T00:34:22.940Z,4.00
2018-05-04T00:36:51.034Z,8.93
2018-05-04T00:39:18.614Z,5.43
2018-05-04T00:41:46.523Z,4.23
2018-05-04T00:44:14.415Z,3.90
2018-05-04T00:46:42.734Z,10.60
2018-05-04T00:49:13.337Z,3.57
2018-05-04T00:51:43.731Z,5.50
2018-05-04T00:54:23.064Z,7.30
2018-05-04T00:56:51.374Z,4.57
2018-05-04T00:59:20.352Z,6.70
2018-05-04T01:01:47.896Z,5.13
2018-05-04T01:04:19.485Z,4.50
2018-05-04T01:06:47.007Z,7.93
2018-05-04T01:09:14.557Z,7.33
2018-05-04T01:11:42.053Z,6.40
2018-05-04T01:14:09.576Z,7.33
2018-05-04T01:16:37.163Z,6.87
2018-05-04T01:19:05.454Z,6.97
2018-05-04T01:21:33.215Z,7.27
2018-05-04T01:24:01.523Z,9.30
2018-05-04T01:26:29.236Z,5.03
2018-05-04T01:28:59.212Z,8.23
2018-05-04T01:31:27.330Z,5.17
2018-05-04T01:33:55.477Z,6.70
2018-05-04T01:36:23.481Z,4.87
2018-05-04T01:38:51.118Z,6.97
2018-05-04T01:41:19.305Z,7.90
2018-05-04T01:43:46.896Z,7.80
2018-05-04T01:46:16.196Z,5.27
2018-05-04T01:48:45.965Z,5.00
2018-05-04T01:51:15.769Z,5.67
2018-05-04T01:53:43.797Z,5.70
2018-05-04T01:56:13.515Z,7.40
2018-05-04T01:58:42.057Z,6.83
2018-05-04T02:01:13.486Z,7.03
2018-05-04T02:03:41.558Z,6.97
2018-05-04T02:06:09.047Z,7.63
2018-05-04T02:08:36.614Z,8.83
2018-05-04T02:11:04.886Z,12.53
2018-05-04T02:13:32.800Z,8.57
2018-05-04T02:16:00.452Z,13.30
2018-05-04T02:18:28.762Z,12.07
2018-05-04T02:20:59.267Z,9.40
2018-05-04T02:23:28.715Z,12.27
2018-05-04T02:25:56.999Z,15.00
2018-05-04T02:28:25.347Z,9.27
2018-05-04T02:30:54.243Z,9.37
2018-05-04T02:33:23.539Z,12.60
2018-05-04T02:35:51.501Z,10.63
2018-05-04T02:38:28.944Z,7.83
2018-05-04T02:41:03.543Z,7.57
2018-05-04T02:43:31.433Z,15.10
2018-05-04T02:46:00.173Z,16.93
2018-05-04T02:48:28.341Z,10.93
2018-05-04T02:50:56.756Z,9.90
2018-05-04T02:53:28.442Z,10.70
2018-05-04T02:55:56.035Z,13.23
2018-05-04T02:58:25.029Z,14.30
2018-05-04T03:00:53.776Z,11.03
2018-05-04T03:03:22.058Z,12.60
2018-05-04T03:05:51.624Z,10.80
2018-05-04T03:08:20.527Z,12.93
2018-05-04T03:10:48.088Z,15.37
2018-05-04T03:13:18.293Z,15.47
2018-05-04T03:15:47.684Z,12.27
2018-05-04T03:18:15.521Z,11.13
2018-05-04T03:20:43.186Z,11.27
2018-05-04T03:23:11.969Z,10.27
2018-05-04T03:25:40.331Z,11.60
2018-05-04T03:28:07.865Z,10.73
2018-05-04T03:30:35.410Z,11.83
2018-05-04T03:33:04.212Z,8.90
2018-05-04T03:35:31.814Z,19.27
2018-05-04T03:38:00.134Z,9.10
2018-05-04T03:40:27.812Z,14.00
2018-05-04T03:42:56.310Z,10.20
2018-05-04T03:45:23.929Z,15.73
2018-05-04T03:47:51.559Z,8.97
2018-05-04T03:50:19.559Z,8.80
2018-05-04T03:52:47.145Z,14.40
2018-05-04T03:55:14.677Z,8.60
2018-05-04T03:57:55.014Z,12.87
2018-05-04T04:00:34.322Z,11.33
2018-05-04T04:03:14.568Z,16.73
2018-05-04T04:05:42.070Z,10.40
2018-05-04T04:08:09.580Z,14.03
2018-05-04T04:10:37.100Z,9.27
2018-05-04T04:13:05.471Z,11.00
2018-05-04T04:15:33.090Z,12.50
2018-05-04T04:18:00.756Z,12.93
2018-05-04T04:20:29.016Z,14.17
2018-05-04T04:22:56.961Z,10.47
2018-05-04T04:25:26.224Z,14.77
2018-05-04T04:27:54.191Z,15.33
2018-05-04T04:30:21.744Z,13.47
2018-05-04T04:32:49.302Z,10.47
2018-05-04T04:35:17.643Z,10.47
2018-05-04T04:37:46.211Z,18.40
2018-05-04T04:40:13.831Z,11.47
2018-05-04T04:42:42.296Z,13.80
2018-05-04T04:45:09.928Z,9.67
2018-05-04T04:47:38.296Z,18.87
2018-05-04T04:50:05.846Z,17.90
2018-05-04T04:52:33.336Z,11.67
2018-05-04T04:55:00.832Z,17.23
2018-05-04T04:57:28.346Z,10.40
2018-05-04T04:59:55.923Z,14.20
2018-05-04T05:02:23.576Z,13.73
2018-05-04T05:04:51.252Z,14.83
2018-05-04T05:07:19.571Z,22.97
2018-05-04T05:09:47.113Z,15.40
2018-05-04T05:12:14.616Z,11.87
2018-05-04T05:14:42.936Z,19.80
2018-05-04T05:17:11.260Z,12.27
2018-05-04T05:19:38.768Z,12.93
2018-05-04T05:22:06.332Z,10.93
2018-05-04T05:24:33.814Z,17.20
2018-05-04T05:27:01.713Z,12.10
2018-05-04T05:29:29.835Z,12.00
2018-05-04T05:31:58.126Z,12.80
2018-05-04T05:34:25.637Z,11.90
2018-05-04T05:36:53.540Z,21.17
2018-05-04T05:39:21.890Z,19.70
2018-05-04T05:41:49.418Z,16.60
2018-05-04T05:44:16.940Z,10.80
2018-05-04T05:46:44.497Z,10.20
2018-05-04T05:49:12.267Z,17.97
2018-05-04T05:51:40.198Z,15.70
2018-05-04T05:54:07.784Z,11.53
2018-05-04T05:56:35.453Z,9.77
2018-05-04T05:59:03.256Z,12.10
2018-05-04T06:01:30.836Z,11.67
2018-05-04T06:03:58.388Z,16.73
2018-05-04T06:06:26.404Z,12.97
2018-05-04T06:08:54.710Z,11.30
2018-05-04T06:11:23.115Z,13.00
2018-05-04T06:13:51.101Z,10.77
2018-05-04T06:16:18.700Z,15.60
2018-05-04T06:18:46.297Z,14.13
2018-05-04T06:21:14.600Z,10.60
2018-05-04T06:23:42.251Z,12.47
2018-05-04T06:26:09.791Z,10.27
2018-05-04T06:28:37.329Z,15.37
2018-05-04T06:31:05.665Z,15.47
2018-05-04T06:33:33.302Z,12.10
2018-05-04T06:36:00.921Z,8.87
2018-05-04T06:38:29.207Z,8.00
2018-05-04T06:40:56.710Z,10.33
2018-05-04T06:43:24.290Z,8.23
2018-05-04T06:45:51.887Z,9.50
2018-05-04T06:48:19.407Z,9.93
2018-05-04T06:50:46.932Z,11.60
2018-05-04T06:53:14.459Z,8.00
2018-05-04T06:55:41.984Z,11.43
2018-05-04T06:58:09.554Z,9.23
2018-05-04T07:00:37.501Z,11.83
2018-05-04T07:03:05.025Z,12.83
2018-05-04T07:05:32.542Z,10.00
2018-05-04T07:08:00.103Z,11.80
2018-05-04T07:10:27.711Z,12.90
2018-05-04T07:12:56.387Z,8.17
2018-05-04T07:15:24.316Z,9.47
2018-05-04T07:17:52.283Z,8.60
2018-05-04T07:20:19.789Z,9.00
2018-05-04T07:22:48.485Z,10.80
2018-05-04T07:25:16.021Z,8.53
2018-05-04T07:27:43.569Z,9.67
2018-05-04T07:30:11.151Z,9.33
2018-05-04T07:32:38.784Z,13.63
2018-05-04T07:35:07.058Z,7.10
2018-05-04T07:37:35.332Z,13.23
2018-05-04T07:40:02.846Z,9.00
2018-05-04T07:42:30.431Z,10.80
2018-05-04T07:44:58.034Z,6.90
2018-05-04T07:47:26.338Z,10.03
2018-05-04T07:49:53.850Z,7.20
2018-05-04T07:52:21.391Z,10.87
2018-05-04T07:54:49.661Z,6.97
2018-05-04T07:57:17.239Z,9.17
2018-05-04T07:59:45.616Z,11.13
2018-05-04T08:02:13.982Z,5.33
2018-05-04T08:04:42.373Z,6.23
2018-05-04T08:07:10.366Z,8.70
2018-05-04T08:09:37.894Z,3.40
2018-05-04T08:12:06.548Z,4.20
2018-05-04T08:14:34.831Z,3.30
2018-05-04T08:17:02.340Z,2.73
2018-05-04T08:19:30.707Z,3.90
2018-05-04T08:21:58.319Z,3.23
2018-05-04T08:24:25.913Z,8.30
2018-05-04T08:26:53.413Z,12.40
2018-05-04T08:29:21.687Z,3.13
2018-05-04T08:31:49.664Z,8.30
2018-05-04T08:34:17.977Z,4.17
2018-05-04T08:36:46.248Z,4.27
2018-05-04T08:39:14.590Z,5.90
2018-05-04T08:41:42.134Z,8.00
2018-05-04T08:44:09.698Z,4.17
2018-05-04T08:46:37.269Z,6.73
2018-05-04T08:49:04.776Z,8.33
2018-05-04T08:51:32.326Z,5.40
2018-05-04T08:54:00.109Z,9.30
2018-05-04T08:56:28.392Z,3.77
2018-05-04T08:58:55.917Z,10.00
2018-05-04T09:01:24.331Z,5.83
2018-05-04T09:03:51.865Z,8.40
2018-05-04T09:06:19.559Z,4.40
2018-05-04T09:08:47.876Z,7.33
2018-05-04T09:11:15.419Z,4.40
2018-05-04T09:13:43.889Z,3.80
2018-05-04T09:16:12.403Z,6.43
2018-05-04T09:18:39.994Z,4.20
2018-05-04T09:21:07.521Z,6.50
2018-05-04T09:23:35.061Z,3.70
2018-05-04T09:26:02.996Z,3.80
2018-05-04T09:28:30.503Z,5.03
2018-05-04T09:30:58.083Z,4.37
2018-05-04T09:33:26.002Z,3.87
2018-05-04T09:35:53.507Z,3.73
2018-05-04T09:38:21.045Z,4.20
2018-05-04T09:40:49.796Z,10.27
2018-05-04T09:43:17.595Z,6.70
2018-05-04T09:45:45.126Z,4.77
2018-05-04T09:48:12.632Z,4.80
2018-05-04T09:50:40.332Z,11.93
2018-05-04T09:53:08.032Z,5.93
2018-05-04T09:55:35.691Z,3.57
2018-05-04T09:58:03.292Z,6.10
2018-05-04T10:00:31.016Z,4.57
2018-05-04T10:02:58.719Z,7.67
2018-05-04T10:05:31.261Z,3.87
2018-05-04T10:08:00.258Z,5.30
2018-05-04T10:10:28.060Z,5.50
2018-05-04T10:12:55.714Z,11.93
2018-05-04T10:15:24.784Z,4.40
2018-05-04T10:17:54.341Z,3.30
2018-05-04T10:20:22.417Z,3.63
2018-05-04T10:22:50.626Z,5.53
2018-05-04T10:25:18.221Z,4.50
2018-05-04T10:27:45.796Z,5.27
2018-05-04T10:30:13.436Z,8.83
2018-05-04T10:32:41.441Z,6.13
2018-05-04T10:35:08.980Z,5.33
2018-05-04T10:37:37.401Z,3.87
2018-05-04T10:40:05.704Z,6.03
2018-05-04T10:42:33.219Z,4.67
2018-05-04T10:45:02.346Z,5.53
2018-05-04T10:47:29.971Z,4.90
2018-05-04T10:49:58.281Z,4.33
2018-05-04T10:52:26.275Z,4.27
2018-05-04T10:54:55.958Z,4.33
2018-05-04T10:57:24.048Z,4.00
2018-05-04T10:59:51.823Z,5.77
2018-05-04T11:02:19.467Z,5.17
2018-05-04T11:04:47.746Z,4.20
2018-05-04T11:07:16.090Z,4.40
2018-05-04T11:09:43.684Z,14.60
2018-05-04T11:12:12.065Z,6.50
2018-05-04T11:14:40.011Z,7.90
2018-05-04T11:17:07.596Z,7.33
2018-05-04T11:19:35.179Z,3.87
2018-05-04T11:22:03.612Z,3.53
2018-05-04T11:24:31.966Z,3.03
2018-05-04T11:27:00.240Z,3.67
2018-05-04T11:29:27.729Z,4.53
2018-05-04T11:31:56.595Z,4.27
2018-05-04T11:34:24.172Z,4.43
2018-05-04T11:36:52.093Z,4.60
2018-05-04T11:39:19.623Z,3.77
2018-05-04T11:41:47.152Z,5.30
2018-05-04T11:44:14.730Z,3.37
2018-05-04T11:46:42.672Z,6.67
2018-05-04T11:49:10.189Z,3.70
2018-05-04T11:51:39.515Z,6.67
2018-05-04T11:54:07.475Z,4.10
2018-05-04T11:56:34.978Z,3.87
2018-05-04T11:59:02.518Z,7.73
2018-05-04T12:01:30.077Z,9.30
2018-05-04T12:03:57.603Z,6.10
2018-05-04T12:06:25.487Z,5.37
2018-05-04T12:08:53.690Z,5.00
2018-05-04T12:11:21.273Z,8.57
2018-05-04T12:13:48.848Z,7.60
2018-05-04T12:16:16.867Z,6.13
2018-05-04T12:18:45.909Z,4.67
2018-05-04T12:21:14.194Z,6.50
2018-05-04T12:23:42.885Z,3.90
2018-05-04T12:26:11.186Z,4.60
2018-05-04T12:28:38.768Z,6.17
2018-05-04T12:31:06.312Z,6.13
2018-05-04T12:33:34.622Z,6.67
2018-05-04T12:36:02.138Z,3.83
2018-05-04T12:38:29.680Z,4.07
2018-05-04T12:40:57.253Z,4.20
2018-05-04T12:43:25.237Z,3.30
2018-05-04T12:45:53.537Z,4.90
2018-05-04T12:48:21.507Z,3.30
2018-05-04T12:50:49.845Z,2.67
2018-05-04T12:53:18.157Z,3.53
2018-05-04T12:55:45.770Z,3.40
2018-05-04T12:58:14.744Z,9.50
2018-05-04T13:00:43.044Z,3.40
2018-05-04T13:03:10.633Z,3.33
2018-05-04T13:05:39.613Z,7.30
2018-05-04T13:08:08.470Z,3.47
2018-05-04T13:10:36.596Z,7.10
2018-05-04T13:13:05.063Z,9.73
2018-05-04T13:15:32.592Z,15.60
2018-05-04T13:18:00.111Z,9.70
2018-05-04T13:20:29.263Z,5.93
2018-05-04T13:22:56.786Z,4.10
2018-05-04T13:25:24.290Z,5.50
2018-05-04T13:27:51.777Z,2.53
2018-05-04T13:30:19.788Z,3.33
2018-05-04T13:32:48.676Z,3.20
2018-05-04T13:35:17.364Z,3.80
2018-05-04T13:37:45.738Z,2.67
2018-05-04T13:40:13.568Z,8.03
2018-05-04T13:42:41.927Z,4.07
2018-05-04T13:45:09.917Z,2.13
2018-05-04T13:47:37.464Z,2.67
2018-05-04T13:50:06.564Z,3.10
2018-05-04T13:52:35.452Z,4.93
2018-05-04T13:55:03.109Z,13.73
2018-05-04T13:57:30.611Z,4.87
2018-05-04T13:59:58.203Z,2.70
2018-05-04T14:02:26.509Z,3.33
2018-05-04T14:04:54.812Z,2.70
2018-05-04T14:07:22.852Z,2.80
2018-05-04T14:09:51.944Z,2.13
2018-05-04T14:12:19.484Z,4.77
2018-05-04T14:14:47.400Z,2.63
2018-05-04T14:17:14.989Z,2.17
2018-05-04T14:19:42.898Z,14.10
2018-05-04T14:22:10.834Z,3.13
2018-05-04T14:24:38.731Z,5.53
2018-05-04T14:27:07.830Z,2.07
2018-05-04T14:29:36.141Z,2.97
2018-05-04T14:32:05.182Z,2.70
2018-05-04T14:34:32.754Z,3.97
2018-05-04T14:37:00.347Z,1.90
2018-05-04T14:39:27.934Z,2.37
2018-05-04T14:41:56.959Z,1.67
2018-05-04T14:44:24.791Z,1.60
2018-05-04T14:46:52.377Z,1.77
2018-05-04T14:49:20.760Z,5.33
2018-05-04T14:51:48.254Z,2.70
2018-05-04T14:54:16.532Z,2.03
2018-05-04T14:56:44.783Z,2.50
2018-05-04T14:59:12.297Z,2.93
2018-05-04T15:01:40.057Z,2.17
2018-05-04T15:04:07.616Z,3.10
2018-05-04T15:06:35.155Z,1.93
2018-05-04T15:09:03.129Z,1.37
2018-05-04T15:11:30.632Z,1.40
2018-05-04T15:13:58.532Z,1.57
2018-05-04T15:16:26.898Z,2.90
2018-05-04T15:18:55.403Z,1.60
2018-05-04T15:21:23.766Z,2.23
2018-05-04T15:23:51.329Z,13.63
2018-05-04T15:26:18.846Z,1.60
2018-05-04T15:28:47.123Z,1.80
2018-05-04T15:31:14.621Z,2.03
2018-05-04T15:33:42.514Z,12.47
2018-05-04T15:36:10.056Z,1.50
2018-05-04T15:38:38.360Z,2.03
2018-05-04T15:41:06.158Z,4.23
2018-05-04T15:43:33.681Z,2.17
2018-05-04T15:46:02.188Z,4.17
2018-05-04T15:48:35.407Z,1.60
2018-05-04T15:51:08.511Z,5.20
2018-05-04T15:53:37.361Z,2.10
2018-05-04T15:56:06.363Z,2.10
2018-05-04T15:58:33.869Z,2.93
2018-05-04T16:01:02.175Z,8.00
2018-05-04T16:03:30.370Z,2.80
2018-05-04T16:05:58.692Z,1.60
2018-05-04T16:08:26.985Z,6.70
2018-05-04T16:10:54.487Z,5.17
2018-05-04T16:13:22.068Z,5.50
2018-05-04T16:15:50.350Z,4.40
2018-05-04T16:18:17.867Z,6.07
2018-05-04T16:20:45.373Z,2.80
2018-05-04T16:23:13.652Z,4.50
2018-05-04T16:25:42.200Z,2.70
2018-05-04T16:28:09.735Z,4.67
2018-05-04T16:30:37.642Z,2.70
2018-05-04T16:33:05.166Z,4.70
2018-05-04T16:35:33.443Z,2.77
2018-05-04T16:38:01.010Z,2.07
2018-05-04T16:40:29.308Z,3.63
2018-05-04T16:42:57.647Z,2.50
2018-05-04T16:45:25.158Z,3.83
2018-05-04T16:47:58.435Z,2.00
2018-05-04T16:50:25.945Z,2.77
2018-05-04T16:52:55.011Z,2.07
2018-05-04T16:55:22.515Z,1.93
2018-05-04T16:57:50.058Z,9.43
2018-05-04T17:00:17.561Z,1.70
2018-05-04T17:02:45.161Z,3.90
2018-05-04T17:05:13.171Z,5.03
2018-05-04T17:07:40.689Z,2.80
2018-05-04T17:10:08.950Z,2.07
2018-05-04T17:12:36.678Z,2.60
2018-05-04T17:15:04.672Z,4.70
2018-05-04T17:17:32.190Z,2.60
2018-05-04T17:19:59.958Z,4.63
2018-05-04T17:22:27.510Z,7.40
2018-05-04T17:24:56.153Z,5.33
2018-05-04T17:27:23.675Z,3.10
2018-05-04T17:29:51.189Z,4.97
2018-05-04T17:32:19.112Z,2.23
2018-05-04T17:34:46.625Z,5.53
2018-05-04T17:37:15.335Z,11.07
2018-05-04T17:39:43.684Z,2.03
2018-05-04T17:42:12.406Z,2.30
2018-05-04T17:44:41.266Z,3.00
2018-05-04T17:47:08.895Z,2.40
2018-05-04T17:49:37.144Z,6.27
2018-05-04T17:52:05.799Z,2.20
2018-05-04T17:54:33.312Z,3.47
2018-05-04T17:57:00.811Z,3.53
2018-05-04T17:59:28.730Z,2.27
2018-05-04T18:01:56.294Z,8.43
2018-05-04T18:04:24.978Z,8.83
2018-05-04T18:06:53.707Z,3.23
2018-05-04T18:09:22.346Z,3.10
2018-05-04T18:11:49.855Z,3.70
2018-05-04T18:14:18.560Z,3.23
2018-05-04T18:16:46.880Z,3.80
2018-05-04T18:19:14.491Z,3.10
2018-05-04T18:21:43.356Z,2.03
2018-05-04T18:24:11.249Z,3.67
2018-05-04T18:26:39.510Z,5.17
2018-05-04T18:29:07.563Z,2.53
2018-05-04T18:31:35.856Z,2.33
2018-05-04T18:34:03.376Z,2.70
2018-05-04T18:36:31.653Z,2.63
2018-05-04T18:39:00.674Z,2.60
2018-05-04T18:41:28.186Z,2.67
2018-05-04T18:43:55.678Z,2.30
2018-05-04T18:46:23.943Z,4.30
2018-05-04T18:48:51.693Z,3.13
2018-05-04T18:51:20.466Z,6.73
2018-05-04T18:53:47.989Z,5.10
2018-05-04T18:56:15.516Z,3.30
2018-05-04T20:20:40.167Z,3.20
2018-05-04T20:23:08.807Z,2.63
2018-05-04T20:25:36.376Z,3.50
2018-05-04T20:28:04.127Z,3.70
2018-05-04T20:30:32.505Z,5.43
2018-05-04T20:33:00.013Z,7.70
2018-05-04T20:35:28.177Z,5.37
2018-05-04T20:37:56.497Z,5.60
2018-05-04T20:40:24.053Z,4.20
2018-05-04T20:42:53.152Z,5.13
2018-05-04T20:45:20.955Z,3.87
2018-05-04T20:47:48.461Z,3.03
2018-05-04T20:50:16.512Z,3.90
2018-05-04T20:52:45.562Z,4.53
2018-05-04T20:55:14.465Z,3.40
2018-05-04T20:57:43.522Z,8.73
2018-05-04T21:00:11.217Z,6.43
2018-05-04T21:02:39.202Z,4.53
2018-05-04T21:05:07.161Z,4.37
2018-05-04T21:07:36.079Z,4.37
2018-05-04T21:10:04.733Z,4.80
2018-05-04T21:12:33.027Z,2.30
2018-05-04T21:15:00.566Z,8.33
2018-05-04T21:17:28.835Z,3.77
2018-05-04T21:19:56.659Z,5.20
2018-05-04T21:22:25.119Z,2.57
2018-05-04T21:24:53.117Z,6.07
2018-05-04T21:27:20.735Z,4.30
2018-05-04T21:29:48.656Z,7.40
2018-05-04T21:32:16.295Z,6.07
2018-05-04T21:34:44.796Z,3.50
2018-05-04T21:37:13.176Z,3.63
2018-05-04T21:39:41.396Z,4.60
2018-05-04T21:42:09.017Z,5.80
2018-05-04T21:44:36.942Z,5.00
2018-05-04T21:47:04.550Z,2.80
2018-05-04T21:49:32.077Z,3.47
2018-05-04T21:51:59.675Z,7.30
2018-05-04T21:54:27.324Z,4.27
2018-05-04T21:56:55.663Z,5.53
2018-05-04T21:59:23.250Z,4.73
2018-05-04T22:01:51.682Z,3.43
2018-05-04T22:04:19.288Z,3.20
2018-05-04T22:06:46.821Z,4.07
2018-05-04T22:09:15.818Z,4.10
2018-05-04T22:11:43.389Z,4.47
2018-05-04T22:14:11.123Z,3.90
2018-05-04T22:16:38.734Z,7.47
2018-05-04T22:19:06.195Z,6.30
2018-05-04T22:21:34.079Z,4.50
2018-05-04T22:24:02.518Z,3.80
2018-05-04T22:26:30.397Z,8.30
2018-05-04T22:28:57.943Z,6.70
2018-05-04T22:31:26.324Z,5.07
2018-05-04T22:33:54.635Z,3.00
2018-05-04T22:36:22.159Z,6.20
2018-05-04T22:38:49.968Z,3.30
2018-05-04T22:41:17.848Z,4.83
2018-05-04T22:43:45.853Z,3.30
2018-05-04T22:46:13.368Z,3.97
2018-05-04T22:48:40.881Z,7.23
2018-05-04T22:51:09.473Z,6.10
2018-05-04T22:53:37.161Z,4.90
2018-05-04T22:56:05.761Z,4.97
2018-05-04T22:58:33.411Z,4.50
2018-05-04T23:01:00.938Z,5.23
2018-05-04T23:03:28.568Z,5.87
2018-05-04T23:05:56.993Z,3.90
2018-05-04T23:08:24.647Z,7.83
2018-05-04T23:10:53.089Z,4.53
2018-05-04T23:13:20.804Z,4.50
2018-05-04T23:15:48.776Z,3.20
2018-05-04T23:18:16.699Z,4.67
2018-05-04T23:20:44.246Z,8.53
2018-05-04T23:23:11.761Z,9.33
2018-05-04T23:25:39.271Z,5.60
2018-05-04T23:28:08.498Z,3.13
2018-05-04T23:30:36.300Z,5.10
2018-05-04T23:33:04.996Z,5.70
2018-05-04T23:35:33.388Z,2.60
2018-05-04T23:38:01.329Z,4.30
2018-05-04T23:40:28.933Z,3.57
2018-05-04T23:42:57.371Z,4.90
2018-05-04T23:45:24.955Z,5.07
2018-05-04T23:47:52.725Z,3.27
2018-05-04T23:50:20.378Z,5.30
2018-05-04T23:52:47.899Z,3.90
2018-05-04T23:55:16.179Z,3.60
2018-05-04T23:57:43.745Z,4.63
